createdAt,value
2017-03-21T00:09:34.857Z,10.2
2017-03-21T00:19:49.201Z,9.8
2017-03-21T00:30:03.909Z,9.7
2017-03-21T00:40:18.949Z,9.7
2017-03-21T00:50:32.753Z,9.7
2017-03-21T01:00:46.518Z,10
2017-03-21T01:11:01.309Z,10.1
2017-03-21T01:21:15.649Z,9.9
2017-03-21T01:31:29.945Z,9.9
2017-03-21T01:51:58.264Z,9.9
2017-03-21T02:02:12.154Z,9.8
2017-03-21T02:12:26.314Z,9.8
2017-03-21T02:22:40.248Z,9.5
2017-03-21T02:32:53.899Z,8.8
2017-03-21T02:43:08.214Z,8.2
2017-03-21T02:53:23.259Z,8.3
2017-03-21T03:03:37.401Z,8.3
2017-03-21T03:13:51.284Z,8.3
2017-03-21T03:24:04.524Z,8.1
2017-03-21T03:34:20.763Z,7.6
2017-03-21T03:44:32.538Z,7.6
2017-03-21T03:54:46.744Z,7.6
2017-03-21T04:05:01.881Z,7.6
2017-03-21T04:15:15.059Z,7.7
2017-03-21T04:25:28.716Z,7.4
2017-03-21T04:35:42.607Z,7.5
2017-03-21T04:45:55.760Z,7.6
2017-03-21T04:56:09.450Z,7.3
2017-03-21T05:06:23.854Z,7.6
2017-03-21T05:16:37.202Z,7.5
2017-03-21T05:26:51.540Z,7.9
2017-03-21T05:37:05.498Z,7.8
2017-03-21T05:47:19.480Z,7.9
2017-03-21T05:57:33.272Z,7.8
2017-03-21T06:07:47.120Z,7.7
2017-03-21T06:18:00.556Z,7.9
2017-03-21T06:28:14.716Z,8.3
2017-03-21T06:38:29.138Z,8.3
2017-03-21T06:48:42.036Z,8.4
2017-03-21T06:58:55.517Z,8.5
2017-03-21T07:09:10.659Z,8.6
2017-03-21T07:19:25.538Z,9.2
2017-03-21T07:29:40.139Z,9.4
2017-03-21T07:39:54.211Z,9.2
2017-03-21T07:50:08.454Z,9.5
2017-03-21T08:00:23.243Z,9.5
2017-03-21T08:10:37.018Z,9.7
2017-03-21T08:20:50.954Z,9.7
2017-03-21T08:31:04.992Z,9.7
2017-03-21T08:41:19.716Z,10.3
2017-03-21T08:51:33.651Z,10.6
2017-03-21T09:01:48.703Z,11.1
2017-03-21T09:12:03.292Z,10.7
2017-03-21T09:22:16.748Z,10.3
2017-03-21T09:32:31.055Z,10.6
2017-03-21T09:42:44.397Z,10.6
2017-03-21T09:52:57.895Z,10.6
2017-03-21T10:03:12.443Z,10.5
2017-03-21T10:13:26.424Z,10.4
2017-03-21T10:23:40.441Z,10.3
2017-03-21T10:33:54.973Z,10.2
2017-03-21T10:44:08.670Z,10.2
2017-03-21T10:54:22.463Z,10.2
2017-03-21T11:04:37.215Z,10.2
2017-03-21T11:14:50.643Z,10.2
2017-03-21T11:25:05.784Z,10.8
2017-03-21T11:35:20.744Z,9.7
2017-03-21T11:45:34.246Z,9.6
2017-03-21T11:55:48.730Z,10.2
2017-03-21T12:06:02.867Z,11.4
2017-03-21T12:16:16.757Z,11.6
2017-03-21T12:26:30.187Z,12
2017-03-21T12:36:44.940Z,12.5
2017-03-21T12:46:59.308Z,11.4
2017-03-21T12:57:14.342Z,11.4
2017-03-21T13:07:28.475Z,11.7
2017-03-21T13:17:42.822Z,10.9
2017-03-21T13:27:57.356Z,11.3
2017-03-21T13:38:11.300Z,11.6
2017-03-21T13:48:24.518Z,11.9
2017-03-21T13:58:38.568Z,12.2
2017-03-21T14:08:52.709Z,12.8
2017-03-21T14:19:07.303Z,11.7
2017-03-21T14:29:20.911Z,11
2017-03-21T14:39:35.716Z,11.1
2017-03-21T14:49:49.287Z,11.4
2017-03-21T15:00:03.002Z,11
2017-03-21T15:10:17.254Z,11.2
2017-03-21T15:20:31.955Z,11
2017-03-21T15:30:45.605Z,11.1
2017-03-21T15:40:59.779Z,10.4
2017-03-21T15:51:13.494Z,10.1
2017-03-21T16:01:28.607Z,10
2017-03-21T16:11:43.727Z,9.9
2017-03-21T16:21:56.894Z,9.4
2017-03-21T16:32:11.628Z,9.3
2017-03-21T16:42:25.060Z,9.1
2017-03-21T16:52:39.509Z,9
2017-03-21T17:02:53.143Z,8.8
2017-03-21T17:13:07.180Z,8.5
2017-03-21T17:23:21.033Z,8.5
2017-03-21T17:33:35.213Z,8.2
2017-03-21T17:43:48.626Z,7.9
2017-03-21T17:54:02.433Z,7.1
2017-03-21T18:04:15.994Z,6.3
2017-03-21T18:14:29.117Z,5.8
2017-03-21T18:24:43.878Z,5.7
2017-03-21T18:34:58.317Z,5.9
2017-03-21T18:45:11.910Z,5.3
2017-03-21T18:55:25.851Z,5.2
2017-03-21T19:05:39.824Z,4.9
2017-03-21T19:15:53.030Z,4.8
2017-03-21T19:26:08.081Z,4.6
2017-03-21T19:36:21.497Z,4.5
2017-03-21T19:46:34.706Z,4.4
2017-03-21T19:56:48.387Z,4.7
2017-03-21T20:07:01.565Z,4.4
2017-03-21T20:17:15.043Z,4.4
2017-03-21T20:27:29.112Z,4.2
2017-03-21T20:37:43.119Z,4
2017-03-21T20:47:56.764Z,4
2017-03-21T20:58:11.549Z,4.1
2017-03-21T21:08:25.449Z,3.8
2017-03-21T21:18:39.823Z,3.4
2017-03-21T21:28:53.697Z,3.2
2017-03-21T21:39:08.317Z,3
2017-03-21T21:49:21.584Z,3
2017-03-21T21:59:35.585Z,3
2017-03-21T22:09:49.455Z,2.9
2017-03-21T22:20:04.219Z,2.9
2017-03-21T22:30:18.085Z,2.7
2017-03-21T22:40:32.151Z,2.6
2017-03-21T22:50:46.588Z,2.7
2017-03-21T23:01:01.497Z,2.9
2017-03-21T23:11:16.163Z,2.8
2017-03-21T23:21:30.173Z,2.8
2017-03-21T23:31:43.303Z,2.8
2017-03-21T23:41:57.826Z,3
2017-03-21T23:52:11.783Z,3
